tititudorancea.com
Station Historical Data
Daily Summary for May 18, 2018 Units:  Metric    English   Both
« Previous Day
Next Day »
Daily Weekly Monthly Yearly Custom
  High: Low: Average:
Temperature: -17.8 °C 7 °C 11.6 °C
Dew Point: -17.8 °C 5.3 °C 9.2 °C
Humidity: Humidity % 68 % 85 %
Wind Speed: 0 km/h 0 km/h 6.8 km/h
Wind Gust: 0 km/h - -
Wind:- - WSW
Pressure: 0 hPa 1022.2 hPa -
Precipitation: 0.76 mm    
Historical Graphs
 
 
Ararat weather Find more about Weather in Ararat, AU


 



 


Tabular Data for May 18, 2018
Time Temperature Dew Point Pressure Wind Wind Speed Wind Gust Humidity Rainfall Rate (Hourly)
-17.8 °C -17.8 °C 0 hPa Calm     Humidity % 0 mm
00:02 11.3 °C 9.4 °C 1023.6 hPa West 4 km/h 5.6 km/h 88 % 0 mm
00:07 11.3 °C 9.4 °C 1023.6 hPa West 4.3 km/h 5.6 km/h 88 % 0 mm
00:12 11.3 °C 9.4 °C 1023.6 hPa North 1.9 km/h 5.6 km/h 88 % 0 mm
00:17 11.3 °C 9.4 °C 1023.6 hPa West 1.1 km/h 5.6 km/h 88 % 0 mm
00:22 11.3 °C 9.6 °C 1023.6 hPa West 5 km/h 5.6 km/h 89 % 0 mm
00:27 11.3 °C 9.6 °C 1023.6 hPa West 3.2 km/h 7.4 km/h 89 % 0 mm
00:32 11.3 °C 9.6 °C 1023.2 hPa West 3.5 km/h 9.3 km/h 89 % 0 mm
00:37 11.4 °C 9.7 °C 1023.2 hPa West 6.4 km/h 7.4 km/h 89 % 0 mm
00:42 11.3 °C 10.1 °C 1023.2 hPa West 4.7 km/h 5.6 km/h 92 % 0 mm
00:47 11.3 °C 9.6 °C 1023.2 hPa West 2.9 km/h 5.6 km/h 89 % 0 mm
00:52 11.3 °C 9.6 °C 1023.2 hPa West 2.4 km/h 5.6 km/h 89 % 0 mm
00:57 11.3 °C 9.6 °C 1023.2 hPa West 1.9 km/h 5.6 km/h 89 % 0 mm
01:02 11.2 °C 9.5 °C 1023.2 hPa North 1.6 km/h 3.7 km/h 89 % 0 mm
01:07 11.2 °C 9.4 °C 1023.2 hPa West 2.9 km/h 3.7 km/h 89 % 0 mm
01:12 11.1 °C 9.3 °C 1023.2 hPa West 2.6 km/h 5.6 km/h 89 % 0 mm
01:17 11 °C 9.3 °C 1023.2 hPa West 1.1 km/h 5.6 km/h 89 % 0 mm
01:22 10.9 °C 9.4 °C 1023.2 hPa West 0.2 km/h 1.9 km/h 90 % 0 mm
01:27 10.9 °C 9.3 °C 1022.9 hPa Calm     90 % 0 mm
01:32 10.9 °C 9.3 °C 1022.9 hPa North 0.6 km/h 5.6 km/h 90 % 0 mm
01:37 10.8 °C 9.3 °C 1022.9 hPa West 4 km/h 5.6 km/h 90 % 0 mm
01:42 10.8 °C 9.3 °C 1022.9 hPa West 6.6 km/h 9.3 km/h 90 % 0 mm
01:47 10.8 °C 9.4 °C 1022.9 hPa West 5.5 km/h 9.3 km/h 91 % 0 mm
01:52 10.8 °C 9.4 °C 1022.9 hPa West 2.6 km/h 5.6 km/h 91 % 0 mm
01:57 10.8 °C 9.4 °C 1022.6 hPa West 4.7 km/h 5.6 km/h 91 % 0 mm
02:02 10.8 °C 9.4 °C 1022.6 hPa North 3.9 km/h 5.6 km/h 91 % 0 mm
02:07 10.7 °C 9.3 °C 1022.6 hPa North 3.4 km/h 5.6 km/h 91 % 0 mm
02:12 10.7 °C 9.3 °C 1022.6 hPa West 3.5 km/h 7.4 km/h 91 % 0 mm
02:17 10.7 °C 9.3 °C 1022.6 hPa West 4.7 km/h 7.4 km/h 91 % 0 mm
02:22 10.7 °C 9.5 °C 1022.6 hPa West 4.8 km/h 7.4 km/h 92 % 0 mm
02:27 10.7 °C 9.5 °C 1022.6 hPa West 4.7 km/h 7.4 km/h 92 % 0 mm
02:32 10.7 °C 9.5 °C 1022.6 hPa West 4 km/h 5.6 km/h 92 % 0 mm
02:37 10.7 °C 9.5 °C 1022.6 hPa West 4 km/h 5.6 km/h 92 % 0 mm
02:42 10.7 °C 9.5 °C 1022.6 hPa North 5.3 km/h 7.4 km/h 92 % 0 mm
02:47 10.7 °C 9.5 °C 1022.6 hPa West 4.8 km/h 6.4 km/h 92 % 0 mm
02:52 10.7 °C 9.4 °C 1022.2 hPa West 6.3 km/h 8 km/h 92 % 0 mm
02:57 10.7 °C 9.4 °C 1022.6 hPa West 4.5 km/h 13 km/h 92 % 0 mm
03:02 10.7 °C 9.4 °C 1022.6 hPa North 2.6 km/h 11.1 km/h 92 % 0 mm
03:07 10.7 °C 9.6 °C 1022.2 hPa West 2.4 km/h 3.7 km/h 93 % 0.25 mm
03:12 10.7 °C 9.6 °C 1022.2 hPa West 5 km/h 7.4 km/h 93 % 0.51 mm
03:17 10.6 °C 9.5 °C 1022.2 hPa West 2.1 km/h 7.4 km/h 93 % 0.51 mm
03:22 10.6 °C 9.5 °C 1022.2 hPa North 0.5 km/h 5.6 km/h 93 % 0.51 mm
03:27 10.6 °C 9.5 °C 1022.2 hPa North 3.9 km/h 5.6 km/h 93 % 0.51 mm
03:32 10.7 °C 9.6 °C 1022.2 hPa North 3.1 km/h 5.6 km/h 93 % 0.51 mm
03:37 10.7 °C 9.6 °C 1022.2 hPa West 1 km/h 3.7 km/h 93 % 0.51 mm
03:42 10.7 °C 9.6 °C 1022.2 hPa West 0.3 km/h 1.9 km/h 93 % 0.51 mm
03:47 10.7 °C 9.6 °C 1022.2 hPa West 1.6 km/h 4.8 km/h 93 % 0.51 mm
03:53 10.7 °C 9.6 °C 1022.6 hPa West 0.6 km/h 1.9 km/h 93 % 0.51 mm
03:58 10.7 °C 9.8 °C 1022.2 hPa Calm     94 % 0.51 mm
04:03 10.8 °C 9.8 °C 1022.2 hPa West 3.5 km/h 3.7 km/h 94 % 0.51 mm
04:08 10.9 °C 9.9 °C 1022.2 hPa West 1.8 km/h 5.6 km/h 94 % 0.25 mm
04:13 11.1 °C 10.2 °C 1022.2 hPa West 6 km/h 9.3 km/h 94 % 0 mm
04:18 11.3 °C 10.4 °C 1022.2 hPa West 6.8 km/h 9.7 km/h 94 % 0 mm
04:23 11.4 °C 10.4 °C 1022.2 hPa West 5.6 km/h 7.4 km/h 94 % 0 mm
04:28 11.4 °C 10.5 °C 1022.2 hPa North 5.3 km/h 5.6 km/h 94 % 0 mm
04:33 11.4 °C 10.5 °C 1022.2 hPa West 7.1 km/h 11.1 km/h 94 % 0 mm
04:38 11.5 °C 10.6 °C 1022.6 hPa North 7.6 km/h 13 km/h 94 % 0 mm
04:43 11.5 °C 10.6 °C 1022.6 hPa West 5.1 km/h 7.4 km/h 94 % 0 mm
04:48 11.5 °C 10.6 °C 1022.6 hPa North 5.1 km/h 7.4 km/h 94 % 0 mm
04:53 11.4 °C 10.5 °C 1022.2 hPa West 3.9 km/h 5.6 km/h 94 % 0 mm
04:58 11.4 °C 10.5 °C 1022.2 hPa West 4.8 km/h 7.4 km/h 94 % 0 mm
05:03 11.4 °C 10.4 °C 1022.2 hPa West 6.1 km/h 7.4 km/h 94 % 0 mm
05:08 11.4 °C 10.4 °C 1022.2 hPa North 6.1 km/h 7.4 km/h 94 % 0 mm
05:13 11.3 °C 10.4 °C 1022.2 hPa West 5.6 km/h 7.4 km/h 94 % 0 mm
05:18 11.3 °C 10.4 °C 1022.2 hPa WSW 8.9 km/h 13 km/h 94 % 0 mm
05:23 11.3 °C 10.4 °C 1022.2 hPa WSW 8.7 km/h 13 km/h 94 % 0 mm
05:28 11.3 °C 10.4 °C 1022.2 hPa WSW 7.9 km/h 14.8 km/h 94 % 0 mm
05:33 11.4 °C 10.4 °C 1022.6 hPa North 12.4 km/h 18.5 km/h 94 % 0 mm
05:38 11.4 °C 10.3 °C 1022.6 hPa WSW 4.8 km/h 8 km/h 93 % 0 mm
05:43 11.4 °C 10.3 °C 1022.2 hPa WSW 6.3 km/h 11.1 km/h 93 % 0 mm
05:48 11.4 °C 10.3 °C 1022.6 hPa WSW 7.7 km/h 13 km/h 93 % 0 mm
05:53 11.4 °C 10.3 °C 1022.6 hPa North 3.9 km/h 5.6 km/h 93 % 0 mm
05:58 11.4 °C 10.3 °C 1022.6 hPa WSW 6.8 km/h 7.4 km/h 93 % 0 mm
06:03 11.4 °C 10.3 °C 1022.6 hPa WSW 4.8 km/h 7.4 km/h 93 % 0 mm
06:08 11.3 °C 10.2 °C 1022.6 hPa WSW 4.8 km/h 5.6 km/h 93 % 0 mm
06:13 11.3 °C 10.2 °C 1022.6 hPa WSW 7.2 km/h 9.3 km/h 93 % 0 mm
06:18 11.3 °C 10.2 °C 1022.6 hPa WSW 7.2 km/h 9.3 km/h 93 % 0 mm
06:23 11.2 °C 10.1 °C 1022.6 hPa WSW 6.9 km/h 9.3 km/h 93 % 0 mm
06:28 11.1 °C 10 °C 1022.6 hPa WSW 1.8 km/h 5.6 km/h 93 % 0 mm
06:33 11 °C 9.9 °C 1022.6 hPa North 4.5 km/h 5.6 km/h 93 % 0 mm
06:38 10.9 °C 9.8 °C 1022.6 hPa WSW 3.5 km/h 5.6 km/h 93 % 0 mm
06:43 10.9 °C 9.8 °C 1022.6 hPa WSW 4 km/h 5.6 km/h 93 % 0 mm
06:48 10.9 °C 9.8 °C 1022.9 hPa North 3.9 km/h 5.6 km/h 93 % 0 mm
06:53 10.9 °C 9.8 °C 1022.9 hPa WSW 3.4 km/h 5.6 km/h 93 % 0 mm
06:58 10.9 °C 9.8 °C 1022.9 hPa North 2.6 km/h 3.7 km/h 93 % 0 mm
07:03 10.9 °C 9.8 °C 1022.9 hPa WSW 6.6 km/h 7.4 km/h 93 % 0 mm
07:08 11.1 °C 10.2 °C 1022.9 hPa North 5.1 km/h 5.6 km/h 94 % 0 mm
07:13 11.2 °C 10.1 °C 1022.6 hPa North 3.7 km/h 5.6 km/h 93 % 0 mm
07:18 11.2 °C 10.1 °C 1022.9 hPa SW 3.2 km/h 5.6 km/h 93 % 0 mm
07:23 11.2 °C 10.1 °C 1022.9 hPa WSW 4.3 km/h 5.6 km/h 93 % 0 mm
07:28 11.2 °C 10.1 °C 1022.9 hPa WSW 4.8 km/h 6.4 km/h 93 % 0 mm
07:33 11.1 °C 10 °C 1022.9 hPa WSW 6.3 km/h 8 km/h 93 % 0 mm
07:38 11.2 °C 10.1 °C 1022.9 hPa WSW 4.7 km/h 5.6 km/h 93 % 0 mm
07:43 11.2 °C 10.1 °C 1023.2 hPa WSW 6.8 km/h 9.7 km/h 93 % 0 mm
07:48 11.2 °C 10.1 °C 1023.2 hPa WSW 8.9 km/h 11.1 km/h 93 % 0 mm
07:53 11.3 °C 10.2 °C 1023.2 hPa WSW 6.9 km/h 11.1 km/h 93 % 0 mm
07:58 11.3 °C 10.2 °C 1023.2 hPa North 9.8 km/h 13 km/h 93 % 0 mm
08:03 11.2 °C 10.1 °C 1023.2 hPa SW 8.7 km/h 13 km/h 93 % 0 mm
08:08 11.1 °C 9.8 °C 1023.2 hPa SW 8.9 km/h 11.3 km/h 92 % 0 mm
08:13 11 °C 9.9 °C 1023.2 hPa SW 7.9 km/h 11.3 km/h 93 % 0 mm
08:18 11 °C 9.9 °C 1023.2 hPa SW 6.1 km/h 9.7 km/h 93 % 0 mm
08:23 11 °C 9.9 °C 1023.6 hPa North 4.2 km/h 7.4 km/h 93 % 0 mm
08:28 10.9 °C 9.8 °C 1023.6 hPa SW 6.4 km/h 8 km/h 93 % 0 mm
08:33 10.9 °C 9.8 °C 1023.6 hPa SW 3.5 km/h 5.6 km/h 93 % 0 mm
08:38 10.9 °C 9.8 °C 1023.6 hPa SW 4.5 km/h 5.6 km/h 93 % 0.25 mm
08:43 10.9 °C 10 °C 1023.6 hPa SW 5.6 km/h 5.6 km/h 94 % 0.25 mm
08:48 11 °C 10.1 °C 1023.6 hPa SW 1 km/h 3.2 km/h 94 % 0.51 mm
08:53 11 °C 10.1 °C 1023.6 hPa SW 0.8 km/h 3.7 km/h 94 % 0.51 mm
08:55 11.1 °C 10.1 °C 1023.6 hPa SW 0.6 km/h 3.7 km/h 94 % 0.51 mm
09:00 11.1 °C 10.2 °C 1023.6 hPa SW 1.8 km/h 5.6 km/h 94 % 0.51 mm
09:05 11.1 °C 10.2 °C 1023.9 hPa SW 5.8 km/h 9.3 km/h 94 % 0.51 mm
09:10 11.1 °C 10.2 °C 1023.9 hPa SW 4 km/h 5.6 km/h 94 % 0.51 mm
09:15 11.1 °C 10.2 °C 1023.9 hPa SW 8.2 km/h 11.1 km/h 94 % 0.51 mm
09:20 11.2 °C 10.2 °C 1023.9 hPa SW 4.8 km/h 5.6 km/h 94 % 0.51 mm
09:25 11.3 °C 10.3 °C 1023.9 hPa SW 7.1 km/h 13 km/h 94 % 0.51 mm
09:30 11.3 °C 10.3 °C 1023.9 hPa SSW 12.4 km/h 16.7 km/h 94 % 0.51 mm
09:35 11.4 °C 10.4 °C 1023.9 hPa SW 7.2 km/h 14.8 km/h 94 % 0.51 mm
09:40 11.5 °C 10.6 °C 1023.9 hPa SW 6.3 km/h 9.3 km/h 94 % 0.25 mm
09:45 11.6 °C 10.6 °C 1023.9 hPa SSW 10.3 km/h 14.8 km/h 94 % 0 mm
09:50 11.5 °C 10.6 °C 1023.9 hPa SSW 15.1 km/h 20.4 km/h 94 % 0 mm
09:55 11.4 °C 10.5 °C 1023.9 hPa SSW 10.8 km/h 18.5 km/h 94 % 0 mm
10:00 11.5 °C 10.6 °C 1023.9 hPa SSW 9.3 km/h 12.9 km/h 94 % 0 mm
10:05 11.4 °C 10.4 °C 1023.9 hPa SSW 6.9 km/h 9.3 km/h 94 % 0 mm
10:10 11.5 °C 10.6 °C 1023.9 hPa SSW 2.6 km/h 8 km/h 94 % 0 mm
10:15 11.5 °C 10.6 °C 1023.9 hPa SSW 6 km/h 7.4 km/h 94 % 0 mm
10:20 11.6 °C 10.4 °C 1023.9 hPa SSW 4.7 km/h 6.4 km/h 93 % 0 mm
10:25 11.6 °C 10.5 °C 1024.3 hPa SSW 5.8 km/h 7.4 km/h 93 % 0 mm
10:30 11.8 °C 10.7 °C 1024.3 hPa SSW 4.2 km/h 5.6 km/h 93 % 0 mm
10:35 11.9 °C 10.7 °C 1024.3 hPa SSW 6.8 km/h 9.3 km/h 92 % 0 mm
10:40 11.9 °C 10.7 °C 1024.3 hPa SSW 6.4 km/h 11.1 km/h 92 % 0 mm
10:45 12 °C 10.6 °C 1024.3 hPa SSW 12.2 km/h 14.5 km/h 91 % 0 mm
10:50 12.1 °C 10.7 °C 1024.3 hPa SSW 7.4 km/h 11.1 km/h 91 % 0 mm
10:55 12.3 °C 10.7 °C 1024.3 hPa SSW 10.5 km/h 14.8 km/h 90 % 0 mm
11:00 12.5 °C 10.7 °C 1024.3 hPa SSW 7.2 km/h 11.1 km/h 89 % 0 mm
11:05 12.6 °C 10.7 °C 1024.3 hPa SSW 7.4 km/h 11.1 km/h 88 % 0 mm
11:10 12.6 °C 10.4 °C 1024.3 hPa SSW 11.6 km/h 18.5 km/h 87 % 0 mm
11:15 12.5 °C 10.4 °C 1024.3 hPa SSW 9.8 km/h 13 km/h 87 % 0 mm
11:20 12.5 °C 10.2 °C 1024.3 hPa SW 8 km/h 14.8 km/h 86 % 0 mm
11:25 12.6 °C 10.3 °C 1024.3 hPa SW 8.5 km/h 13 km/h 86 % 0 mm
11:30 12.6 °C 10.3 °C 1023.9 hPa SW 9.8 km/h 16.7 km/h 86 % 0 mm
11:35 12.8 °C 10.5 °C 1023.9 hPa SW 7.2 km/h 9.3 km/h 86 % 0 mm
11:40 13 °C 10.6 °C 1023.9 hPa SW 9.3 km/h 14.8 km/h 85 % 0 mm
11:45 13 °C 10.3 °C 1023.9 hPa SW 11.7 km/h 14.8 km/h 84 % 0 mm
11:50 13.1 °C 10.4 °C 1023.9 hPa SW 12.9 km/h 18.5 km/h 84 % 0 mm
11:55 13 °C 10.3 °C 1023.9 hPa WSW 13.8 km/h 18.5 km/h 84 % 0 mm
12:00 13 °C 10.6 °C 1023.9 hPa SW 8 km/h 16.1 km/h 85 % 0 mm
12:05 13 °C 10.3 °C 1023.9 hPa WSW 11.7 km/h 19.3 km/h 84 % 0 mm
12:10 13 °C 10.3 °C 1023.9 hPa SW 14.6 km/h 20.4 km/h 84 % 0 mm
12:15 13.2 °C 10.5 °C 1023.9 hPa SW 17.5 km/h 20.9 km/h 84 % 0 mm
12:20 13.6 °C 10.9 °C 1023.6 hPa WSW 10 km/h 13 km/h 84 % 0 mm
12:25 14 °C 11 °C 1023.6 hPa North 11.4 km/h 14.8 km/h 82 % 0 mm
12:30 14.2 °C 10.8 °C 1023.6 hPa WSW 16.9 km/h 18.5 km/h 80 % 0 mm
12:35 14.3 °C 10.6 °C 1023.6 hPa SW 12.4 km/h 22.2 km/h 78 % 0 mm
12:40 14.3 °C 9.9 °C 1023.6 hPa SW 15.4 km/h 20.9 km/h 75 % 0 mm
12:45 14.2 °C 10.1 °C 1023.2 hPa West 15.4 km/h 18.5 km/h 76 % 0 mm
12:50 14.4 °C 9.9 °C 1023.2 hPa WSW 17.1 km/h 24.1 km/h 74 % 0 mm
12:55 14.4 °C 9.6 °C 1023.2 hPa North 16.7 km/h 22.2 km/h 73 % 0 mm
13:00 14.4 °C 9.6 °C 1023.2 hPa SW 17.9 km/h 22.2 km/h 73 % 0 mm
13:05 14.3 °C 9.5 °C 1023.2 hPa SSW 12.2 km/h 29.6 km/h 73 % 0 mm
13:10 14.4 °C 9.7 °C 1023.2 hPa SW 14.5 km/h 20.4 km/h 73 % 0 mm
13:15 14.4 °C 9.2 °C 1023.2 hPa SW 20.6 km/h 27.8 km/h 71 % 0 mm
13:20 14.1 °C 8.9 °C 1023.2 hPa North 18.8 km/h 25.9 km/h 71 % 0 mm
13:25 13.9 °C 9.4 °C 1023.2 hPa SW 9.3 km/h 18.5 km/h 74 % 0 mm
13:30 14.3 °C 9.7 °C 1022.9 hPa SW 11.4 km/h 18.5 km/h 74 % 0 mm
13:35 14.5 °C 9.1 °C 1023.2 hPa SW 25.4 km/h 31.5 km/h 70 % 0 mm
13:40 14.3 °C 8.7 °C 1023.2 hPa WSW 19.3 km/h 27.8 km/h 69 % 0 mm
13:45 14.4 °C 9.1 °C 1022.9 hPa SW 13.4 km/h 16.7 km/h 70 % 0 mm
13:50 14.6 °C 8.8 °C 1022.9 hPa SSW 18.2 km/h 25.9 km/h 68 % 0 mm
13:55 14.6 °C 8.9 °C 1022.9 hPa SSW 9.7 km/h 14.8 km/h 69 % 0 mm
14:00 14.6 °C 9.3 °C 1022.9 hPa SW 14.5 km/h 20.4 km/h 71 % 0 mm
14:05 14.4 °C 9.4 °C 1022.9 hPa SSW 11.6 km/h 16.7 km/h 72 % 0 mm
14:10 14.1 °C 9.1 °C 1022.9 hPa SW 15.4 km/h 27.8 km/h 72 % 0 mm
14:15 13.8 °C 9.2 °C 1022.9 hPa SW 14 km/h 22.2 km/h 74 % 0 mm
14:20 13.7 °C 9.3 °C 1022.9 hPa SSW 8.4 km/h 13 km/h 75 % 0 mm
14:25 13.4 °C 8.8 °C 1022.9 hPa SW 16.4 km/h 22.2 km/h 74 % 0 mm
14:30 13.4 °C 9.1 °C 1022.9 hPa SW 11.1 km/h 18.5 km/h 75 % 0 mm
14:35 13.7 °C 9.2 °C 1022.9 hPa SW 14.2 km/h 22.2 km/h 74 % 0 mm
14:40 13.7 °C 8.9 °C 1022.9 hPa SW 13.5 km/h 18.5 km/h 73 % 0 mm
14:45 13.6 °C 9.2 °C 1022.9 hPa SSW 10.8 km/h 18.5 km/h 75 % 0 mm
14:50 13.7 °C 9.5 °C 1022.9 hPa SW 9.2 km/h 16.7 km/h 76 % 0 mm
14:55 14.1 °C 9.7 °C 1022.9 hPa SSW 13.4 km/h 14.8 km/h 75 % 0 mm
15:00 14.1 °C 9.5 °C 1022.9 hPa SW 14.6 km/h 20.4 km/h 74 % 0 mm
15:05 13.9 °C 9.3 °C 1022.9 hPa SW 9 km/h 13 km/h 74 % 0 mm
15:10 13.8 °C 9.4 °C 1022.9 hPa SSW 9.3 km/h 13 km/h 75 % 0 mm
15:15 13.8 °C 9.4 °C 1022.9 hPa SW 13.5 km/h 14.8 km/h 75 % 0 mm
15:20 13.8 °C 9.2 °C 1022.9 hPa North 11.3 km/h 16.7 km/h 74 % 0 mm
15:25 13.8 °C 9.3 °C 1022.9 hPa SSW 6.3 km/h 14.8 km/h 74 % 0 mm
15:30 13.8 °C 9 °C 1022.9 hPa SSW 15.4 km/h 22.2 km/h 73 % 0 mm
15:35 13.7 °C 8.9 °C 1022.9 hPa SSW 11.6 km/h 18.5 km/h 73 % 0 mm
15:40 13.7 °C 8.9 °C 1022.9 hPa SW 9.5 km/h 18.5 km/h 73 % 0 mm
15:45 13.6 °C 9.1 °C 1022.9 hPa SSW 14.8 km/h 20.4 km/h 74 % 0 mm
15:50 13.8 °C 9.1 °C 1022.9 hPa SW 14.8 km/h 18.5 km/h 73 % 0 mm
15:56 13.9 °C 8.7 °C 1022.9 hPa SW 14.2 km/h 18.5 km/h 71 % 0 mm
16:00 13.9 °C 8.7 °C 1022.9 hPa SSW 14.5 km/h 18.5 km/h 71 % 0 mm
16:05 13.8 °C 8.8 °C 1022.9 hPa SSW 17.1 km/h 20.4 km/h 72 % 0 mm
16:11 13.4 °C 8.7 °C 1022.9 hPa SW 9.7 km/h 18.5 km/h 73 % 0 mm
16:16 13.3 °C 8.7 °C 1022.9 hPa SW 7.7 km/h 9.3 km/h 74 % 0 mm
16:21 13.2 °C 9.1 °C 1022.9 hPa SW 5.6 km/h 16.7 km/h 76 % 0 mm
16:26 13.3 °C 9.2 °C 1022.9 hPa SW 5.5 km/h 7.4 km/h 76 % 0 mm
16:31 13.5 °C 9.2 °C 1022.9 hPa SW 6.9 km/h 16.7 km/h 75 % 0 mm
16:36 13.6 °C 9.2 °C 1022.9 hPa North 6 km/h 9.3 km/h 75 % 0 mm
16:41 13.5 °C 8.9 °C 1022.9 hPa SW 11.6 km/h 16.7 km/h 74 % 0 mm
16:46 13.4 °C 8.7 °C 1022.9 hPa SSW 10.8 km/h 13 km/h 73 % 0 mm
16:51 13.3 °C 8.6 °C 1022.9 hPa SW 12.4 km/h 19.3 km/h 73 % 0 mm
16:56 13.2 °C 7.8 °C 1022.9 hPa SW 16.4 km/h 24.1 km/h 70 % 0 mm
17:01 13.1 °C 7.9 °C 1022.9 hPa SW 10.9 km/h 18.5 km/h 71 % 0 mm
17:06 12.9 °C 7.8 °C 1023.2 hPa North 11.7 km/h 18.5 km/h 71 % 0 mm
17:11 12.7 °C 7.6 °C 1023.2 hPa SW 12.4 km/h 16.7 km/h 71 % 0 mm
17:16 12.6 °C 7.5 °C 1023.2 hPa SW 7.4 km/h 9.3 km/h 71 % 0 mm
17:21 12.4 °C 7.6 °C 1023.2 hPa SW 7.2 km/h 9.3 km/h 72 % 0 mm
17:26 12.4 °C 7.5 °C 1023.2 hPa SW 7.1 km/h 9.7 km/h 72 % 0 mm
17:31 12.3 °C 7.6 °C 1023.2 hPa SW 10.6 km/h 13 km/h 73 % 0 mm
17:36 12.2 °C 7.5 °C 1023.2 hPa SSW 8 km/h 13 km/h 73 % 0 mm
17:41 12.2 °C 7.7 °C 1023.2 hPa SW 7.6 km/h 13 km/h 74 % 0 mm
17:46 12.1 °C 7.8 °C 1023.6 hPa SSW 7.1 km/h 11.1 km/h 75 % 0 mm
17:51 11.9 °C 7.8 °C 1023.2 hPa North 8.9 km/h 11.1 km/h 76 % 0 mm
17:56 11.8 °C 7.9 °C 1023.6 hPa SSW 5.8 km/h 9.3 km/h 77 % 0 mm
18:01 11.7 °C 8 °C 1023.6 hPa SSW 8.7 km/h 11.1 km/h 78 % 0 mm
18:06 11.6 °C 8.1 °C 1023.6 hPa SSW 8.4 km/h 13 km/h 79 % 0 mm
18:11 11.4 °C 7.9 °C 1023.6 hPa North 6.4 km/h 8 km/h 79 % 0 mm
18:16 11.3 °C 8 °C 1023.6 hPa SSW 3.2 km/h 7.4 km/h 80 % 0 mm
18:21 11.2 °C 7.9 °C 1023.6 hPa SSW 4.7 km/h 9.3 km/h 80 % 0 mm
18:26 11.1 °C 7.9 °C 1023.6 hPa SSW 7.4 km/h 9.3 km/h 81 % 0 mm
18:31 10.9 °C 7.8 °C 1023.6 hPa SSW 3.7 km/h 5.6 km/h 81 % 0 mm
18:36 10.8 °C 7.8 °C 1023.9 hPa SSW 4.8 km/h 6.4 km/h 82 % 0 mm
18:41 10.7 °C 7.8 °C 1023.6 hPa SSW 4.2 km/h 7.4 km/h 82 % 0 mm
18:46 10.6 °C 7.6 °C 1023.9 hPa SSW 2.4 km/h 5.6 km/h 82 % 0 mm
18:51 10.4 °C 7.5 °C 1023.9 hPa SSW 0.2 km/h 1.6 km/h 82 % 0 mm
18:56 10.4 °C 7.6 °C 1023.9 hPa North 3.5 km/h 5.6 km/h 83 % 0 mm
19:01 10.2 °C 7.4 °C 1023.9 hPa SSW 5.6 km/h 7.4 km/h 83 % 0 mm
19:06 10.1 °C 7.6 °C 1023.9 hPa SSW 3.5 km/h 5.6 km/h 84 % 0 mm
19:11 10 °C 7.4 °C 1023.9 hPa SSW 3.5 km/h 5.6 km/h 84 % 0 mm
19:16 9.9 °C 7.4 °C 1023.9 hPa SSW 3.9 km/h 5.6 km/h 84 % 0 mm
19:21 9.9 °C 7.3 °C 1024.3 hPa SSW 2.3 km/h 5.6 km/h 84 % 0 mm
19:26 9.8 °C 7.4 °C 1024.3 hPa Calm     85 % 0 mm
19:31 9.7 °C 7.3 °C 1024.3 hPa SSW 1.1 km/h 3.7 km/h 85 % 0 mm
19:36 9.7 °C 7.3 °C 1024.3 hPa Calm     85 % 0 mm
19:41 9.6 °C 7.2 °C 1024.3 hPa SSW 2.6 km/h 5.6 km/h 85 % 0 mm
19:46 9.7 °C 7.4 °C 1024.3 hPa SSW 3.5 km/h 5.6 km/h 86 % 0 mm
19:51 9.6 °C 7.4 °C 1024.3 hPa SSW 2.4 km/h 3.7 km/h 86 % 0 mm
19:55 9.6 °C 7.4 °C 1024.3 hPa SSW 2.3 km/h 5.6 km/h 86 % 0 mm
20:00 9.6 °C 7.4 °C 1024.3 hPa North 0.2 km/h   86 % 0 mm
20:05 9.6 °C 7.4 °C 1023.9 hPa North 2.1 km/h 3.7 km/h 86 % 0 mm
20:10 9.5 °C 7.1 °C 1024.3 hPa Calm     85 % 0 mm
20:15 9.4 °C 7 °C 1024.3 hPa North 1.8 km/h 3.7 km/h 85 % 0 mm
20:20 9.2 °C 6.9 °C 1024.3 hPa Calm     86 % 0 mm
20:25 9 °C 6.8 °C 1024.3 hPa Calm     86 % 0 mm
20:30 8.9 °C 6.7 °C 1024.3 hPa Calm     86 % 0 mm
20:35 8.7 °C 6.7 °C 1024.3 hPa Calm     87 % 0 mm
20:40 8.5 °C 6.4 °C 1024.3 hPa Calm     87 % 0 mm
20:45 8.3 °C 6.2 °C 1024.3 hPa Calm     87 % 0 mm
20:50 8.1 °C 6.1 °C 1024.3 hPa Calm     87 % 0 mm
20:55 7.9 °C 6.1 °C 1024.3 hPa Calm     88 % 0 mm
21:00 7.8 °C 5.9 °C 1024.3 hPa Calm     88 % 0 mm
21:05 7.7 °C 5.8 °C 1024.3 hPa Calm     88 % 0 mm
21:10 7.6 °C 5.8 °C 1024.3 hPa North 1.4 km/h 3.7 km/h 89 % 0 mm
21:15 7.4 °C 5.7 °C 1024.3 hPa Calm     89 % 0 mm
21:20 7.2 °C 5.6 °C 1024.3 hPa Calm     89 % 0 mm
21:25 7 °C 5.3 °C 1024.3 hPa Calm     89 % 0 mm
Ararat Weather
Compliments of Weather Underground - 2.25 mb
Click here to send mail.


ABOUT

Live weather data from Ararat, Victoria, Australia, 3377
Data uploaded from Cumulus every 5 minutes to Weather Underground.
This site then downloads the raw data for formatting and display.
Metric and imperial data can be displayed. Graphs and historical data available.
Includes Sun and Moon times and rain image live from BOM.

Check out Ararat Weather on Facebook, Twitter and Google +

Help support ongoing costs by checking out the ads





Follow @AraratWeather